Terminal Aerodrome Forecast
Issued by NWS

Home | Current Version | Previous Version | Text Only | Print | Product List | Glossary On
Versions: 1 2 3 4 5 6 7 8 9 10 11 12 13 14 15 16 17 18 19 20 21 22 23 24 25 26 27 28 29
699
FTUS43 KABR 170520
TAFPIR
TAF
KPIR 170520Z 1706/1806 VRB05KT P6SM OVC090
     FM171500 31009KT P6SM BKN070
     FM171700 32014G20KT P6SM BKN100
     FM172200 30009KT P6SM SCT250=

USA.gov is the U.S. government's official web portal to all federal, state and local government web resources and services.